Time;durP1;ratioP1;P1;durP2;ratioP2;P2;SDS_P1;SDS_P2;PMS_P1;PMS_P2;Temp;Humidity;BMP_temperature;BMP_pressure;BME280_temperature;BME280_humidity;BME280_pressure;Samples;Min_cycle;Max_cycle;Signal;HPM_P1;HPM_P2
2021/10/18 00:02:09;;;;;;;17.67;9.20;;;9.90;99.90;;;;;;5116000;28;20506;-84
2021/10/18 00:04:35;;;;;;;14.30;10.13;;;9.90;99.90;;;;;;5114442;28;20574;-86
2021/10/18 00:07:02;;;;;;;12.97;7.73;;;9.90;99.90;;;;;;5114154;28;20443;-86
2021/10/18 00:09:28;;;;;;;10.87;8.97;;;9.80;99.90;;;;;;5112602;28;20460;-86
2021/10/18 00:11:55;;;;;;;8.60;7.33;;;9.90;99.90;;;;;;5109661;28;20441;-86
2021/10/18 00:14:22;;;;;;;16.27;9.37;;;9.90;99.90;;;;;;5104526;28;20970;-86
2021/10/18 00:16:51;;;;;;;11.13;7.03;;;10.00;99.90;;;;;;5103137;28;20430;-86
2021/10/18 00:19:18;;;;;;;14.40;8.50;;;;;;;;;;5103250;28;20579;-87
2021/10/18 00:21:44;;;;;;;16.50;8.40;;;9.90;99.90;;;;;;5103350;28;20548;-86
2021/10/18 00:24:11;;;;;;;13.40;8.70;;;9.90;99.90;;;;;;5103039;28;20940;-86
2021/10/18 00:26:38;;;;;;;10.30;7.70;;;;;;;;;;5103260;28;20448;-86
2021/10/18 00:29:05;;;;;;;12.00;7.93;;;10.00;99.90;;;;;;5103785;28;20423;-87
2021/10/18 00:31:32;;;;;;;15.73;8.20;;;9.90;99.90;;;;;;5102669;28;20936;-86
2021/10/18 00:33:59;;;;;;;17.83;7.10;;;9.90;99.90;;;;;;5105050;28;20467;-86
2021/10/18 00:36:26;;;;;;;9.80;7.50;;;;;;;;;;5105268;28;20415;-86
2021/10/18 00:38:53;;;;;;;10.37;7.80;;;9.90;99.90;;;;;;5104008;28;20466;-86
2021/10/18 00:41:20;;;;;;;10.63;7.47;;;;;;;;;;5102534;28;20510;-86
2021/10/18 00:43:49;;;;;;;9.57;7.13;;;9.90;99.90;;;;;;5108292;28;20452;-85
2021/10/18 00:46:20;;;;;;;10.60;7.50;;;10.00;99.90;;;;;;5113783;28;20455;-85
2021/10/18 00:48:47;;;;;;;12.47;7.23;;;10.00;99.90;;;;;;5107315;28;20410;-85
2021/10/18 00:51:15;;;;;;;8.10;7.30;;;10.00;99.90;;;;;;5103103;28;20447;-86
2021/10/18 00:53:44;;;;;;;8.20;7.10;;;10.00;99.90;;;;;;5102596;28;20466;-87
2021/10/18 00:56:10;;;;;;;12.80;8.03;;;10.00;99.90;;;;;;5100330;28;20476;-86
2021/10/18 00:58:37;;;;;;;10.63;7.27;;;10.00;99.90;;;;;;5099553;28;20450;-87
2021/10/18 01:01:05;;;;;;;10.50;6.77;;;10.00;99.90;;;;;;5100127;28;20514;-86
2021/10/18 01:03:32;;;;;;;14.60;7.70;;;10.00;99.90;;;;;;5100711;28;20949;-86
2021/10/18 01:05:59;;;;;;;14.80;8.70;;;10.00;99.90;;;;;;5099952;28;20493;-87
2021/10/18 01:08:27;;;;;;;11.80;8.20;;;9.90;99.90;;;;;;5100174;28;20480;-86
2021/10/18 01:10:53;;;;;;;12.70;7.60;;;9.60;99.90;;;;;;5100013;28;20470;-87
2021/10/18 01:13:20;;;;;;;11.37;7.90;;;10.00;99.90;;;;;;5101436;28;20467;-87
2021/10/18 01:15:47;;;;;;;12.90;8.17;;;;;;;;;;5118261;28;20414;-88
2021/10/18 01:18:14;;;;;;;16.70;7.90;;;9.50;99.90;;;;;;5116857;28;20467;-86
2021/10/18 01:20:43;;;;;;;9.07;7.80;;;9.90;99.90;;;;;;5100568;28;20435;-87
2021/10/18 01:23:11;;;;;;;7.90;6.80;;;10.20;99.90;;;;;;5100584;28;20976;-87
2021/10/18 01:25:38;;;;;;;8.17;7.37;;;10.00;99.90;;;;;;5101239;28;20445;-87
2021/10/18 01:28:05;;;;;;;8.57;7.67;;;9.90;99.90;;;;;;5102127;28;20419;-86
2021/10/18 01:30:32;;;;;;;10.13;8.87;;;9.70;99.90;;;;;;5100531;28;20485;-87
2021/10/18 01:32:59;;;;;;;12.40;7.53;;;9.60;99.90;;;;;;5101649;28;20447;-87
2021/10/18 01:35:26;;;;;;;9.20;6.70;;;;;;;;;;5101502;28;20448;-87
2021/10/18 01:37:54;;;;;;;9.50;8.10;;;10.00;99.90;;;;;;5100026;28;20448;-86
2021/10/18 01:40:23;;;;;;;9.80;8.17;;;10.00;99.90;;;;;;5099113;28;20475;-86
2021/10/18 01:42:51;;;;;;;13.93;8.43;;;10.00;99.90;;;;;;5098869;28;20493;-87
2021/10/18 01:45:19;;;;;;;14.03;8.83;;;9.90;99.90;;;;;;5101070;28;20499;-86
2021/10/18 01:47:46;;;;;;;13.27;9.17;;;9.70;99.90;;;;;;5099595;28;20791;-87
2021/10/18 01:50:14;;;;;;;9.93;8.10;;;10.00;99.90;;;;;;5099906;28;20443;-86
2021/10/18 01:52:42;;;;;;;10.50;7.83;;;10.00;99.90;;;;;;5099433;28;20441;-87
2021/10/18 01:55:10;;;;;;;11.27;7.97;;;10.00;99.90;;;;;;5100103;28;20479;-87
2021/10/18 01:57:37;;;;;;;10.77;7.37;;;9.90;99.90;;;;;;5099683;28;20915;-86
2021/10/18 02:00:06;;;;;;;9.30;7.73;;;10.00;99.90;;;;;;5124505;22;20480;-83
2021/10/18 02:02:33;;;;;;;15.43;8.00;;;9.90;99.90;;;;;;5113810;28;20510;-84
2021/10/18 02:04:59;;;;;;;15.50;7.80;;;10.00;99.90;;;;;;5107228;28;20407;-85
2021/10/18 02:07:26;;;;;;;9.80;7.10;;;10.00;99.90;;;;;;5100603;28;20422;-84
2021/10/18 02:09:53;;;;;;;10.13;7.33;;;10.10;99.90;;;;;;5098309;28;20439;-84
2021/10/18 02:12:21;;;;;;;8.43;7.63;;;10.10;99.90;;;;;;5109804;28;20519;-84
2021/10/18 02:14:48;;;;;;;10.93;7.30;;;10.10;99.90;;;;;;5118176;28;20445;-83
2021/10/18 02:17:15;;;;;;;17.23;8.13;;;9.80;99.90;;;;;;5118279;28;20494;-83
2021/10/18 02:19:42;;;;;;;9.93;7.37;;;10.50;99.90;;;;;;5100845;28;20475;-84
2021/10/18 02:22:08;;;;;;;10.57;7.60;;;10.10;99.90;;;;;;5115273;28;20468;-84
2021/10/18 02:24:35;;;;;;;11.17;8.63;;;10.10;99.90;;;;;;5118225;28;20462;-85
2021/10/18 02:27:02;;;;;;;9.73;7.50;;;10.10;99.90;;;;;;5115612;28;20410;-85
2021/10/18 02:29:30;;;;;;;10.47;8.40;;;10.10;99.90;;;;;;5121324;28;20428;-83
2021/10/18 02:31:56;;;;;;;10.40;7.00;;;10.10;99.90;;;;;;5120781;28;20447;-82
2021/10/18 02:34:23;;;;;;;9.37;7.90;;;10.10;99.90;;;;;;5120358;28;20419;-83
2021/10/18 02:36:50;;;;;;;8.80;6.43;;;10.10;99.90;;;;;;5116537;28;20436;-86
2021/10/18 02:39:16;;;;;;;9.10;6.83;;;10.10;99.90;;;;;;5120577;28;20448;-83
2021/10/18 02:41:43;;;;;;;7.80;7.00;;;10.10;99.90;;;;;;5121131;28;20476;-85
2021/10/18 02:44:10;;;;;;;8.30;7.17;;;10.10;99.90;;;;;;5111664;28;20485;-85
2021/10/18 02:46:38;;;;;;;8.73;6.87;;;10.10;99.90;;;;;;5104463;28;20920;-85
2021/10/18 02:49:04;;;;;;;8.80;7.07;;;10.10;99.90;;;;;;5103616;28;20437;-87
2021/10/18 02:51:31;;;;;;;7.60;6.80;;;10.10;99.90;;;;;;5103197;28;20480;-86
2021/10/18 02:53:57;;;;;;;7.77;7.07;;;10.10;99.90;;;;;;5104242;28;20450;-86
2021/10/18 02:56:24;;;;;;;10.73;7.53;;;10.10;99.90;;;;;;5117277;28;20444;-82
2021/10/18 02:58:51;;;;;;;7.67;6.80;;;10.10;99.90;;;;;;5116993;28;20471;-81
2021/10/18 03:01:17;;;;;;;9.30;7.40;;;10.10;99.90;;;;;;5106044;28;20533;-85
2021/10/18 03:03:45;;;;;;;11.47;7.83;;;10.10;99.90;;;;;;5118864;28;20441;-83
2021/10/18 03:06:12;;;;;;;11.60;7.13;;;10.10;99.90;;;;;;5107316;28;20419;-84
2021/10/18 03:08:38;;;;;;;11.80;7.73;;;10.10;99.90;;;;;;5099998;28;20478;-84
2021/10/18 03:11:05;;;;;;;8.10;7.30;;;10.10;99.90;;;;;;5100615;28;20461;-85
2021/10/18 03:13:32;;;;;;;13.03;7.07;;;10.10;99.90;;;;;;5100465;28;20863;-83
2021/10/18 03:15:58;;;;;;;12.43;8.50;;;10.00;99.90;;;;;;5100685;28;20455;-84
2021/10/18 03:18:25;;;;;;;8.17;6.77;;;10.10;99.90;;;;;;5103059;28;20444;-85
2021/10/18 03:20:53;;;;;;;7.50;6.80;;;9.90;99.90;;;;;;5118777;28;20441;-85
2021/10/18 03:23:19;;;;;;;10.30;7.70;;;10.10;99.90;;;;;;5121059;28;20466;-82
2021/10/18 03:25:46;;;;;;;11.93;7.13;;;10.10;99.90;;;;;;5118765;28;20425;-85
2021/10/18 03:28:12;;;;;;;17.97;7.70;;;10.10;99.90;;;;;;5120613;28;20186;-83
2021/10/18 03:30:39;;;;;;;8.10;7.30;;;10.10;99.90;;;;;;5118286;28;20431;-83
2021/10/18 03:33:06;;;;;;;17.53;8.57;;;10.10;99.90;;;;;;5118291;28;20402;-83
2021/10/18 03:35:33;;;;;;;11.03;7.90;;;10.10;99.90;;;;;;5114875;28;20440;-85
2021/10/18 03:38:01;;;;;;;7.80;6.67;;;10.10;99.90;;;;;;5114079;28;20441;-84
2021/10/18 03:40:27;;;;;;;9.10;6.90;;;10.10;99.90;;;;;;5108291;28;20446;-84
2021/10/18 03:42:54;;;;;;;11.57;7.73;;;10.00;99.90;;;;;;5104987;28;20447;-85
2021/10/18 03:45:21;;;;;;;9.27;6.77;;;10.00;99.90;;;;;;5107784;28;20506;-85
2021/10/18 03:47:47;;;;;;;8.03;7.07;;;10.10;99.90;;;;;;5104941;28;20433;-85
2021/10/18 03:50:15;;;;;;;11.73;6.73;;;10.10;99.90;;;;;;5101873;28;20483;-85
2021/10/18 03:52:42;;;;;;;10.20;7.53;;;10.10;99.90;;;;;;5100862;28;20920;-85
2021/10/18 03:55:11;;;;;;;7.23;6.53;;;10.20;99.90;;;;;;5102419;28;20205;-85
2021/10/18 03:57:38;;;;;;;7.10;6.33;;;10.20;99.90;;;;;;5101078;28;20445;-85
2021/10/18 04:00:07;;;;;;;7.30;6.50;;;10.20;99.90;;;;;;5100995;28;20450;-86
2021/10/18 04:02:34;;;;;;;9.50;7.30;;;10.20;99.90;;;;;;5101807;28;20431;-85
2021/10/18 04:05:00;;;;;;;10.20;7.07;;;10.20;99.90;;;;;;5101811;28;20501;-85
2021/10/18 04:07:27;;;;;;;12.33;6.80;;;10.20;99.90;;;;;;5101957;28;20419;-85
2021/10/18 04:09:54;;;;;;;7.27;6.67;;;10.30;99.90;;;;;;5100905;28;20457;-84
2021/10/18 04:12:22;;;;;;;9.47;6.10;;;10.30;99.90;;;;;;5101067;28;20543;-85
2021/10/18 04:14:48;;;;;;;8.53;6.23;;;10.30;99.90;;;;;;5101585;28;20419;-85
2021/10/18 04:17:15;;;;;;;6.77;6.00;;;10.30;99.90;;;;;;5101335;28;20434;-85
2021/10/18 04:19:41;;;;;;;6.73;6.03;;;10.20;99.90;;;;;;5106534;28;20423;-83
2021/10/18 04:22:08;;;;;;;11.23;7.43;;;10.30;99.90;;;;;;5119652;28;20446;-82
2021/10/18 04:24:35;;;;;;;10.47;7.30;;;10.30;99.90;;;;;;5118536;28;20448;-84
2021/10/18 04:27:01;;;;;;;9.43;6.77;;;10.30;99.90;;;;;;5118079;28;20423;-82
2021/10/18 04:29:29;;;;;;;17.53;7.50;;;10.30;99.90;;;;;;5119418;28;20414;-82
2021/10/18 04:31:58;;;;;;;8.80;6.80;;;10.30;99.90;;;;;;5119311;28;20474;-85
2021/10/18 04:34:25;;;;;;;7.50;6.80;;;10.20;99.90;;;;;;5117727;28;20443;-84
2021/10/18 04:36:51;;;;;;;9.20;8.30;;;10.20;99.90;;;;;;5119641;28;20434;-81
2021/10/18 04:39:18;;;;;;;7.30;6.23;;;10.20;99.90;;;;;;5108374;28;20966;-85
2021/10/18 04:41:45;;;;;;;11.67;6.30;;;10.20;99.90;;;;;;5100249;28;20464;-85
2021/10/18 04:44:11;;;;;;;7.93;6.40;;;10.20;99.90;;;;;;5102699;28;20448;-86
2021/10/18 04:46:39;;;;;;;11.03;6.70;;;10.20;99.90;;;;;;5115325;28;20462;-83
2021/10/18 04:49:06;;;;;;;6.00;5.40;;;10.20;99.90;;;;;;5111523;28;20497;-86
2021/10/18 04:51:33;;;;;;;12.13;7.20;;;10.20;99.90;;;;;;5104788;28;20460;-85
2021/10/18 04:54:00;;;;;;;8.67;5.97;;;10.30;99.90;;;;;;5104115;28;20448;-84
2021/10/18 04:56:26;;;;;;;7.07;5.70;;;10.30;99.90;;;;;;5112409;28;20441;-84
2021/10/18 04:58:54;;;;;;;9.17;7.43;;;10.20;99.90;;;;;;5116925;28;20436;-85
2021/10/18 05:01:20;;;;;;;8.80;6.30;;;10.30;99.90;;;;;;5114155;28;20487;-83
2021/10/18 05:03:48;;;;;;;6.20;5.60;;;10.30;99.90;;;;;;5104452;28;20484;-83
2021/10/18 05:06:15;;;;;;;6.17;5.37;;;10.40;99.90;;;;;;5114041;28;20423;-84
2021/10/18 05:08:42;;;;;;;6.27;5.67;;;10.30;99.90;;;;;;5115192;28;20423;-86
2021/10/18 05:11:08;;;;;;;7.93;5.80;;;10.40;99.90;;;;;;5113549;28;20494;-84
2021/10/18 05:13:35;;;;;;;8.03;6.00;;;10.30;99.90;;;;;;5105411;28;20423;-83
2021/10/18 05:16:02;;;;;;;9.60;6.33;;;10.30;99.90;;;;;;5099161;28;20490;-84
2021/10/18 05:18:28;;;;;;;6.87;6.00;;;10.20;99.90;;;;;;5098029;28;20488;-83
2021/10/18 05:20:56;;;;;;;5.73;5.20;;;10.30;99.90;;;;;;5096806;28;20472;-84
2021/10/18 05:23:23;;;;;;;7.73;5.10;;;10.30;99.90;;;;;;5097877;28;20458;-84
2021/10/18 05:25:49;;;;;;;9.43;4.70;;;10.30;99.90;;;;;;5108350;28;20411;-83
2021/10/18 05:28:16;;;;;;;6.40;5.50;;;10.30;99.90;;;;;;5106007;28;20783;-84
2021/10/18 05:30:43;;;;;;;8.00;5.60;;;10.30;99.90;;;;;;5111963;28;20445;-85
2021/10/18 05:33:09;;;;;;;6.73;6.03;;;10.30;99.90;;;;;;5118818;28;20528;-83
2021/10/18 05:35:37;;;;;;;6.07;4.87;;;10.30;99.90;;;;;;5110638;28;20480;-83
2021/10/18 05:38:05;;;;;;;7.13;5.73;;;10.30;99.90;;;;;;5107862;28;20407;-81
2021/10/18 05:40:32;;;;;;;8.07;6.13;;;10.20;99.90;;;;;;5117529;28;20470;-84
2021/10/18 05:42:58;;;;;;;6.67;6.07;;;10.50;99.90;;;;;;5116595;28;21057;-85
2021/10/18 05:45:25;;;;;;;7.40;5.27;;;10.20;99.90;;;;;;5114325;28;20498;-83
2021/10/18 05:47:57;;;;;;;6.57;5.03;;;10.20;99.90;;;;;;5113189;28;20406;-84
2021/10/18 05:50:26;;;;;;;7.23;6.40;;;10.30;99.90;;;;;;5113020;28;20468;-84
2021/10/18 05:52:53;;;;;;;9.37;5.57;;;10.30;99.90;;;;;;5114974;28;20414;-84
2021/10/18 05:55:21;;;;;;;6.40;5.80;;;10.20;99.90;;;;;;5113122;28;20448;-83
2021/10/18 05:57:50;;;;;;;7.83;5.97;;;10.20;99.90;;;;;;5112749;28;20467;-83
2021/10/18 06:00:17;;;;;;;6.93;5.90;;;10.20;99.90;;;;;;5105145;28;20494;-85
2021/10/18 06:02:43;;;;;;;11.03;6.07;;;10.20;99.90;;;;;;5105676;28;20463;-85
2021/10/18 06:05:10;;;;;;;6.63;5.90;;;10.20;99.90;;;;;;5105740;28;20445;-85
2021/10/18 06:07:37;;;;;;;26.90;20.53;;;10.10;99.90;;;;;;5106256;28;20966;-85
2021/10/18 06:10:05;;;;;;;10.63;9.40;;;10.10;99.90;;;;;;5106149;28;20494;-85
2021/10/18 06:12:33;;;;;;;9.97;7.57;;;10.00;99.90;;;;;;5111478;28;20489;-84
2021/10/18 06:15:00;;;;;;;15.17;13.77;;;10.00;99.90;;;;;;5115324;28;20430;-84
2021/10/18 06:17:27;;;;;;;7.83;7.03;;;10.00;99.90;;;;;;5117571;28;20421;-83
2021/10/18 06:19:53;;;;;;;8.30;7.53;;;10.00;99.90;;;;;;5116237;28;20435;-84
2021/10/18 06:22:20;;;;;;;7.80;6.30;;;10.00;99.90;;;;;;5116961;28;20758;-84
2021/10/18 06:24:46;;;;;;;9.77;6.70;;;10.00;99.90;;;;;;5117747;28;20414;-85
2021/10/18 06:27:13;;;;;;;8.60;5.77;;;10.00;99.90;;;;;;5118780;28;20411;-83
2021/10/18 06:29:41;;;;;;;11.60;5.60;;;10.40;99.90;;;;;;5119225;28;20428;-80
2021/10/18 06:32:07;;;;;;;7.20;4.80;;;10.20;99.90;;;;;;5121704;28;20391;-81
2021/10/18 06:34:34;;;;;;;6.67;6.07;;;10.20;99.90;;;;;;5119214;28;20491;-83
2021/10/18 06:37:01;;;;;;;7.43;6.03;;;10.30;99.90;;;;;;5119495;28;20475;-82
2021/10/18 06:39:27;;;;;;;12.23;8.73;;;10.30;99.90;;;;;;5118439;28;20498;-82
2021/10/18 06:41:54;;;;;;;7.30;6.10;;;10.40;99.90;;;;;;5119241;28;20487;-82
2021/10/18 06:44:21;;;;;;;6.60;5.50;;;10.30;99.90;;;;;;5120761;28;20466;-84
2021/10/18 06:46:48;;;;;;;8.57;6.03;;;10.40;99.90;;;;;;5119089;28;20425;-83
2021/10/18 06:49:16;;;;;;;6.97;5.10;;;10.40;99.90;;;;;;5119449;28;20423;-82
2021/10/18 06:51:46;;;;;;;10.43;5.23;;;10.40;99.90;;;;;;5120156;28;20407;-81
2021/10/18 06:54:13;;;;;;;7.20;5.30;;;10.50;99.90;;;;;;5119944;28;20447;-84
2021/10/18 06:56:44;;;;;;;7.47;5.40;;;10.30;99.90;;;;;;5120118;28;20400;-82
2021/10/18 06:59:11;;;;;;;9.73;5.50;;;10.50;99.90;;;;;;5120712;28;20399;-82
2021/10/18 07:01:37;;;;;;;5.60;5.00;;;10.60;99.90;;;;;;5118518;28;20468;-83
2021/10/18 07:04:05;;;;;;;6.50;5.80;;;10.60;99.90;;;;;;5120309;28;20440;-83
2021/10/18 07:06:32;;;;;;;5.33;4.83;;;10.60;99.90;;;;;;5120231;28;20466;-83
2021/10/18 07:08:59;;;;;;;8.07;6.00;;;10.60;99.90;;;;;;5120554;28;20415;-86
2021/10/18 07:11:26;;;;;;;8.77;6.07;;;10.60;99.90;;;;;;5119941;28;20672;-81
2021/10/18 07:13:53;;;;;;;13.10;8.40;;;10.50;99.90;;;;;;5120275;28;20497;-82
2021/10/18 07:16:21;;;;;;;10.63;7.67;;;;;;;;;;5119416;28;20441;-82
2021/10/18 07:18:48;;;;;;;10.43;6.60;;;10.60;99.90;;;;;;5120019;28;20433;-83
2021/10/18 07:21:16;;;;;;;8.57;5.43;;;10.70;99.90;;;;;;5119813;28;20461;-84
2021/10/18 07:23:45;;;;;;;6.90;5.70;;;10.70;99.90;;;;;;5119866;28;20432;-84
2021/10/18 07:26:11;;;;;;;6.30;4.93;;;10.90;99.90;;;;;;5119628;28;20421;-82
2021/10/18 07:28:38;;;;;;;6.60;5.50;;;11.00;99.90;;;;;;5117225;28;20411;-83
2021/10/18 07:31:05;;;;;;;9.23;5.90;;;;;;;;;;5115492;28;20436;-84
2021/10/18 07:33:32;;;;;;;11.63;6.90;;;;;;;;;;5118044;28;20229;-83
2021/10/18 07:36:07;;;;;;;24.40;15.70;;;;;;;;;;5118223;28;20415;-82
2021/10/18 07:38:35;;;;;;;10.07;5.57;;;11.40;99.90;;;;;;5118584;28;20431;-83
2021/10/18 07:41:02;;;;;;;9.80;5.53;;;;;;;;;;5119077;28;20463;-82
2021/10/18 07:43:29;;;;;;;5.30;4.60;;;;;;;;;;5119122;28;20451;-83
2021/10/18 07:45:56;;;;;;;11.00;5.60;;;;;;;;;;5118903;28;20483;-82
2021/10/18 07:48:23;;;;;;;11.50;5.80;;;;;;;;;;5119237;28;20423;-83
2021/10/18 07:50:50;;;;;;;6.37;5.73;;;;;;;;;;5119567;28;20483;-84
2021/10/18 07:53:17;;;;;;;6.50;5.17;;;;;;;;;;5115686;28;20518;-85
2021/10/18 07:55:45;;;;;;;7.10;4.80;;;11.70;99.90;;;;;;5116117;28;20445;-82
2021/10/18 07:58:12;;;;;;;6.43;4.80;;;;;;;;;;5115019;28;20449;-82
2021/10/18 08:00:39;;;;;;;7.47;5.50;;;;;;;;;;5133928;22;20452;-88
2021/10/18 08:03:06;;;;;;;5.10;4.40;;;;;;;;;;5097463;28;20482;-88
2021/10/18 08:05:33;;;;;;;5.67;4.67;;;;;;;;;;5100777;28;20444;-87
2021/10/18 08:08:00;;;;;;;6.80;4.63;;;;;;;;;;5104512;28;20422;-87
2021/10/18 08:10:28;;;;;;;8.60;6.17;;;;;;;;;;5106257;28;20451;-86
2021/10/18 08:13:06;;;;;;;6.30;5.70;;;;;;;;;;5109450;28;20411;-89
2021/10/18 08:15:34;;;;;;;5.67;5.17;;;;;;;;;;5116304;28;20395;-87
2021/10/18 08:18:01;;;;;;;7.90;5.30;;;;;;;;;;5113289;28;20445;-87
2021/10/18 08:20:28;;;;;;;5.93;5.27;;;;;;;;;;5103222;28;20416;-87
2021/10/18 08:22:55;;;;;;;7.20;5.50;;;;;;;;;;5100067;28;20884;-86
2021/10/18 08:25:22;;;;;;;6.83;5.63;;;;;;;;;;5098138;28;20501;-87
2021/10/18 08:27:49;;;;;;;5.03;4.33;;;;;;;;;;5097609;28;20882;-86
2021/10/18 08:30:18;;;;;;;4.00;3.70;;;;;;;;;;5102068;28;20445;-87
2021/10/18 08:32:45;;;;;;;5.27;3.70;;;;;;;;;;5099839;28;20423;-87
2021/10/18 08:35:12;;;;;;;7.73;4.53;;;;;;;;;;5097679;28;20848;-87
2021/10/18 08:40:26;;;;;;;9.43;5.33;;;;;;;;;;5103459;28;20408;-87
2021/10/18 08:42:57;;;;;;;11.63;4.63;;;;;;;;;;5102767;28;20521;-86
2021/10/18 08:45:26;;;;;;;3.83;3.53;;;;;;;;;;5099835;28;20887;-86
2021/10/18 08:47:54;;;;;;;7.00;4.40;;;;;;;;;;5099931;28;20448;-86
2021/10/18 08:50:22;;;;;;;10.80;5.20;;;;;;;;;;5099145;28;20436;-86
2021/10/18 08:52:50;;;;;;;8.77;5.40;;;;;;;;;;5099302;28;20452;-87
2021/10/18 08:55:17;;;;;;;5.43;4.90;;;;;;;;;;5101497;28;20472;-86
2021/10/18 08:57:44;;;;;;;5.10;4.70;;;;;;;;;;5099811;28;20471;-87
2021/10/18 09:00:34;;;;;;;5.33;4.70;;;;;;;;;;5100903;28;20427;-86
2021/10/18 09:03:02;;;;;;;6.87;4.70;;;;;;;;;;5098181;28;20456;-86
2021/10/18 09:05:29;;;;;;;5.27;4.13;;;;;;;;;;5100356;28;20862;-85
2021/10/18 09:07:56;;;;;;;10.10;4.10;;;;;;;;;;5105702;28;20436;-86
2021/10/18 09:10:23;;;;;;;6.70;5.73;;;;;;;;;;5098777;28;20423;-88
2021/10/18 09:12:50;;;;;;;11.17;6.63;;;;;;;;;;5100023;28;20419;-87
2021/10/18 09:15:20;;;;;;;5.77;4.77;;;;;;;;;;5099704;28;21022;-87
2021/10/18 09:17:52;;;;;;;8.43;6.03;;;;;;;;;;5099093;28;20450;-86
2021/10/18 09:20:25;;;;;;;10.90;5.47;;;;;;;;;;5099599;28;20432;-87
2021/10/18 09:22:53;;;;;;;8.27;4.80;;;;;;;;;;5099719;28;20428;-87
2021/10/18 09:25:34;;;;;;;13.60;4.93;;;;;;;;;;5100540;28;20479;-86
2021/10/18 09:28:08;;;;;;;6.87;3.87;;;;;;;;;;5099805;28;20496;-86
2021/10/18 09:30:39;;;;;;;5.73;3.70;;;;;;;;;;5099697;28;20498;-86
2021/10/18 09:33:15;;;;;;;4.80;3.67;;;;;;;;;;5103128;28;20455;-86
2021/10/18 09:35:43;;;;;;;3.70;3.40;;;;;;;;;;5107238;28;20437;-86
2021/10/18 09:38:11;;;;;;;8.27;3.90;;;;;;;;;;5120858;28;20444;-92
2021/10/18 09:40:40;;;;;;;8.03;4.50;;;;;;;;;;5122302;28;20443;-91
2021/10/18 09:43:14;;;;;;;5.17;3.27;;;;;;;;;;5115696;28;20498;-86
2021/10/18 09:45:59;;;;;;;3.70;3.40;;;;;;;;;;5108504;28;20449;-86
2021/10/18 10:51:45;;;;;;;2.83;2.63;;;;;;;;;;5103271;28;20479;-87
2021/10/18 10:57:39;;;;;;;4.80;3.07;;;;;;;;;;5084988;28;20454;-87
2021/10/18 11:00:31;;;;;;;8.67;4.90;;;14.30;99.90;;;;;;5104553;28;20772;-88
2021/10/18 11:03:42;;;;;;;4.10;2.77;;;14.30;99.90;;;;;;5107491;28;20959;-88
2021/10/18 11:06:13;;;;;;;2.97;2.60;;;14.30;99.90;;;;;;5105762;28;20412;-86
2021/10/18 11:08:42;;;;;;;5.10;3.30;;;14.30;99.90;;;;;;5101655;28;20440;-86
2021/10/18 11:11:12;;;;;;;4.57;3.07;;;;;;;;;;5103194;28;20469;-86
2021/10/18 11:13:46;;;;;;;3.80;2.70;;;;;;;;;;5103114;28;20444;-86
2021/10/18 11:20:00;;;;;;;2.60;2.07;;;14.80;99.90;;;;;;5039451;28;20452;-88
2021/10/18 11:22:37;;;;;;;4.10;2.80;;;;;;;;;;5098989;28;20473;-86
2021/10/18 11:25:13;;;;;;;3.23;2.43;;;;;;;;;;5103038;28;20484;-86
2021/10/18 11:27:46;;;;;;;5.80;3.77;;;;;;;;;;5107210;28;20422;-88
2021/10/18 11:30:39;;;;;;;3.27;2.87;;;;;;;;;;5117945;28;20409;-86
2021/10/18 11:33:16;;;;;;;3.90;2.23;;;;;;;;;;5117474;28;20429;-88
2021/10/18 11:35:55;;;;;;;2.27;2.17;;;;;;;;;;5103947;28;20440;-87
2021/10/18 11:38:33;;;;;;;4.50;2.50;;;;;;;;;;5107822;28;20424;-88
2021/10/18 11:44:35;;;;;;;5.33;2.57;;;;;;;;;;5077496;28;20684;-88
2021/10/18 11:47:30;;;;;;;3.50;2.90;;;;;;;;;;5115984;28;20442;-89
2021/10/18 11:53:45;;;;;;;7.80;3.60;;;14.70;99.90;;;;;;5115189;28;20466;-88
2021/10/18 11:56:34;;;;;;;2.90;2.60;;;;;;;;;;5109127;28;20516;-87
2021/10/18 11:59:10;;;;;;;3.90;2.53;;;;;;;;;;5089721;28;20456;-86
2021/10/18 12:01:49;;;;;;;3.10;2.40;;;;;;;;;;5104826;28;20563;-86
2021/10/18 12:04:18;;;;;;;3.23;2.40;;;;;;;;;;5105344;28;20509;-87
2021/10/18 12:06:56;;;;;;;2.33;2.00;;;;;;;;;;5107583;28;20453;-89
2021/10/18 12:09:31;;;;;;;3.40;2.50;;;;;;;;;;5110886;28;20445;-87
2021/10/18 12:12:12;;;;;;;1.80;1.70;;;;;;;;;;5112254;28;20494;-87
2021/10/18 12:14:59;;;;;;;2.00;1.80;;;15.30;99.90;;;;;;5108491;28;20450;-87
2021/10/18 12:17:26;;;;;;;2.27;1.70;;;;;;;;;;5107070;28;20444;-86
2021/10/18 12:19:53;;;;;;;3.37;2.13;;;;;;;;;;5107074;28;20478;-87
2021/10/18 12:22:20;;;;;;;2.97;2.77;;;;;;;;;;5104912;28;20468;-87
2021/10/18 12:25:00;;;;;;;1.80;1.70;;;15.30;99.90;;;;;;5103320;28;20476;-87
2021/10/18 12:27:27;;;;;;;2.13;1.90;;;;;;;;;;5104580;28;20505;-87
2021/10/18 12:29:56;;;;;;;1.83;1.50;;;;;;;;;;5105725;28;20448;-87
2021/10/18 12:32:23;;;;;;;2.47;1.80;;;;;;;;;;5105964;28;20856;-86
2021/10/18 12:35:03;;;;;;;2.13;1.97;;;15.30;99.90;;;;;;5103389;28;20449;-86
2021/10/18 12:37:30;;;;;;;1.73;1.60;;;;;;;;;;5104197;28;20514;-87
2021/10/18 12:40:03;;;;;;;1.93;1.83;;;15.30;99.90;;;;;;5103201;28;20444;-86
2021/10/18 12:42:48;;;;;;;5.03;2.87;;;15.00;99.90;;;;;;5103106;28;20464;-87
2021/10/18 12:45:19;;;;;;;3.23;2.00;;;15.40;99.90;;;;;;5102793;28;20464;-88
2021/10/18 12:47:50;;;;;;;3.77;2.37;;;15.40;99.90;;;;;;5108266;28;20913;-86
2021/10/18 12:50:20;;;;;;;2.57;2.27;;;15.40;99.90;;;;;;5100513;28;20437;-86
2021/10/18 12:52:53;;;;;;;3.00;2.40;;;15.40;99.90;;;;;;5102132;28;20868;-86
2021/10/18 12:55:21;;;;;;;3.50;2.77;;;;;;;;;;5102506;28;20429;-86
2021/10/18 12:57:49;;;;;;;2.80;2.30;;;15.40;99.90;;;;;;5102013;28;20477;-87
2021/10/18 13:00:20;;;;;;;4.90;2.47;;;15.40;99.90;;;;;;5107236;28;20554;-87
2021/10/18 13:02:48;;;;;;;2.37;2.17;;;;;;;;;;5114641;28;20445;-86
2021/10/18 13:05:19;;;;;;;4.50;3.03;;;15.30;99.90;;;;;;5110588;28;20472;-86
2021/10/18 13:07:52;;;;;;;4.30;4.00;;;15.40;99.90;;;;;;5103283;28;20424;-86
2021/10/18 13:10:19;;;;;;;6.60;5.40;;;;;;;;;;5101490;28;20456;-86
2021/10/18 13:12:47;;;;;;;8.70;5.97;;;;;;;;;;5101664;28;20444;-86
2021/10/18 13:15:16;;;;;;;8.27;5.17;;;15.40;99.90;;;;;;5101982;28;20443;-86
2021/10/18 13:17:44;;;;;;;5.80;4.50;;;15.40;99.90;;;;;;5102176;28;20448;-86
2021/10/18 13:20:16;;;;;;;8.83;4.70;;;15.40;99.90;;;;;;5101975;28;20445;-86
2021/10/18 13:22:44;;;;;;;2.67;2.47;;;;;;;;;;5104454;28;20440;-87
2021/10/18 13:25:11;;;;;;;3.33;2.13;;;;;;;;;;5104041;28;20463;-88
2021/10/18 13:27:39;;;;;;;3.40;3.10;;;;;;;;;;5107159;28;20449;-87
2021/10/18 13:30:10;;;;;;;2.73;2.53;;;;;;;;;;5108055;28;20436;-87
2021/10/18 13:32:38;;;;;;;12.23;8.20;;;;;;;;;;5106605;28;20966;-87
2021/10/18 13:35:09;;;;;;;3.90;3.10;;;15.40;99.90;;;;;;5107293;28;20498;-87
2021/10/18 13:37:37;;;;;;;3.40;3.00;;;15.40;99.90;;;;;;5107092;28;20453;-87
2021/10/18 13:40:06;;;;;;;3.60;3.30;;;;;;;;;;5100208;28;20483;-87
2021/10/18 13:42:34;;;;;;;4.23;2.83;;;;;;;;;;5100917;28;20817;-87
2021/10/18 13:45:03;;;;;;;2.23;2.00;;;;;;;;;;5101244;28;21004;-87
2021/10/18 13:47:33;;;;;;;3.07;2.40;;;;;;;;;;5098411;28;20451;-86
2021/10/18 13:50:00;;;;;;;2.70;2.03;;;;;;;;;;5098871;28;20456;-86
2021/10/18 13:52:28;;;;;;;5.03;3.47;;;;;;;;;;5100629;28;20473;-87
2021/10/18 13:54:55;;;;;;;3.83;2.93;;;;;;;;;;5098928;28;20506;-85
2021/10/18 13:57:23;;;;;;;4.23;2.90;;;;;;;;;;5099476;28;20444;-85
2021/10/18 13:59:50;;;;;;;2.90;2.17;;;;;;;;;;5100771;28;20781;-86
2021/10/18 14:02:17;;;;;;;6.47;2.50;;;;;;;;;;5141844;22;20955;-85
2021/10/18 14:04:44;;;;;;;2.53;2.33;;;;;;;;;;5106890;28;20491;-85
2021/10/18 14:07:13;;;;;;;3.10;2.67;;;;;;;;;;5102740;28;20886;-85
2021/10/18 14:09:41;;;;;;;2.40;2.20;;;15.40;99.90;;;;;;5104539;28;20507;-82
2021/10/18 14:12:09;;;;;;;3.30;3.00;;;;;;;;;;5116842;28;20464;-85
2021/10/18 14:14:36;;;;;;;2.70;2.47;;;;;;;;;;5117175;28;20492;-83
2021/10/18 14:17:03;;;;;;;5.27;2.73;;;;;;;;;;5115644;28;20446;-84
2021/10/18 14:19:32;;;;;;;2.40;2.30;;;;;;;;;;5117846;28;20443;-83
2021/10/18 14:21:59;;;;;;;3.50;2.60;;;;;;;;;;5111640;28;21049;-83
2021/10/18 14:24:30;;;;;;;7.90;4.20;;;;;;;;;;5110813;28;20499;-86
2021/10/18 14:27:00;;;;;;;3.90;3.37;;;;;;;;;;5108600;28;20429;-84
2021/10/18 14:29:27;;;;;;;8.33;5.10;;;;;;;;;;5106111;28;20451;-84
2021/10/18 14:31:54;;;;;;;5.83;4.70;;;;;;;;;;5109689;28;20494;-85
2021/10/18 14:34:22;;;;;;;8.43;4.60;;;;;;;;;;5109303;28;20491;-85
2021/10/18 14:36:49;;;;;;;6.27;4.33;;;;;;;;;;5108145;28;20415;-84
2021/10/18 14:39:16;;;;;;;3.07;2.60;;;;;;;;;;5111434;28;20783;-84
2021/10/18 14:41:44;;;;;;;3.97;3.00;;;;;;;;;;5111829;28;20475;-84
2021/10/18 14:44:12;;;;;;;4.80;3.63;;;15.20;99.90;;;;;;5116252;28;20443;-83
2021/10/18 14:46:39;;;;;;;4.60;2.80;;;;;;;;;;5113906;28;20483;-82
2021/10/18 14:49:06;;;;;;;3.67;2.83;;;;;;;;;;5114072;28;20437;-82
2021/10/18 14:51:33;;;;;;;3.67;3.37;;;;;;;;;;5114230;28;20491;-83
2021/10/18 14:54:03;;;;;;;4.77;3.90;;;;;;;;;;5110093;28;20470;-83